Time;durP1;ratioP1;P1;durP2;ratioP2;P2;SDS_P1;SDS_P2;PMS_P1;PMS_P2;Temp;Humidity;BMP_temperature;BMP_pressure;BME280_temperature;BME280_humidity;BME280_pressure;Samples;Min_cycle;Max_cycle;Signal;HPM_P1;HPM_P2
2021/06/08 00:02:09;;;;;;;6.33;5.73;;;;;;;16.37;99.20;100612.41;256299;1092;114470;-70
2021/06/08 00:07:12;;;;;;;6.70;5.68;;;;;;;16.29;97.63;100608.47;255703;1092;114411;-71
2021/06/08 00:12:14;;;;;;;7.63;5.53;;;;;;;16.18;99.79;100611.80;255871;1092;114542;-69
2021/06/08 00:17:16;;;;;;;6.35;5.80;;;;;;;16.08;100.00;100606.97;255838;1092;114616;-70
2021/06/08 00:22:18;;;;;;;7.35;6.63;;;;;;;16.01;100.00;100616.34;256064;1092;114971;-70
2021/06/08 00:27:21;;;;;;;6.30;5.38;;;;;;;15.92;100.00;100601.64;255913;1093;114764;-71
2021/06/08 00:32:23;;;;;;;6.85;6.18;;;;;;;15.70;100.00;100606.50;255921;1093;114684;-71
2021/06/08 00:37:25;;;;;;;6.98;6.23;;;;;;;15.54;100.00;100601.16;255827;1093;115067;-71
2021/06/08 00:42:30;;;;;;;6.17;5.57;;;;;;;15.41;100.00;100609.92;255873;1093;114798;-71
2021/06/08 00:47:32;;;;;;;6.80;6.13;;;;;;;15.44;100.00;100598.14;256051;1096;114601;-70
2021/06/08 00:52:34;;;;;;;7.00;5.58;;;;;;;15.37;100.00;100597.61;255646;1093;114960;-72
2021/06/08 00:57:38;;;;;;;6.73;6.13;;;;;;;15.07;100.00;100593.03;256010;1095;114899;-72
2021/06/08 01:02:40;;;;;;;9.13;6.80;;;;;;;15.09;100.00;100591.11;256241;1095;115375;-73
2021/06/08 01:07:43;;;;;;;8.67;6.77;;;;;;;14.88;100.00;100581.56;256103;1095;114660;-70
2021/06/08 01:12:46;;;;;;;7.47;6.77;;;;;;;14.96;100.00;100579.33;255773;1095;115227;-70
2021/06/08 01:17:51;;;;;;;8.23;6.70;;;;;;;15.02;100.00;100587.03;256011;1092;114572;-70
2021/06/08 01:22:53;;;;;;;8.03;7.30;;;;;;;14.82;100.00;100589.01;255995;1093;114986;-72
2021/06/08 01:27:55;;;;;;;7.70;7.03;;;;;;;14.81;100.00;100592.64;256219;1093;115034;-70
2021/06/08 01:33:00;;;;;;;8.75;7.35;;;;;;;14.80;100.00;100588.22;255919;1093;114918;-72
2021/06/08 01:38:02;;;;;;;7.40;6.77;;;;;;;14.65;100.00;100591.73;255937;1092;114748;-70
2021/06/08 01:43:05;;;;;;;7.30;6.70;;;;;;;14.56;100.00;100587.70;255924;1093;114701;-72
2021/06/08 01:48:07;;;;;;;7.93;7.15;;;;;;;14.49;100.00;100584.49;255824;1093;114656;-69
2021/06/08 01:53:19;;;;;;;11.05;8.05;;;;;;;14.64;100.00;100589.98;256179;1092;114993;-70
2021/06/08 01:58:37;;;;;;;;;;;;;;;14.72;100.00;100601.20;256409;1093;114804;-71
2021/06/08 02:03:47;;;;;;;10.38;7.83;;;;;;;14.47;100.00;100594.42;256125;1093;103166;-71
2021/06/08 02:09:17;;;;;;;8.35;7.58;;;;;;;14.59;100.00;100608.16;256095;1093;115530;-71
2021/06/08 02:14:30;;;;;;;7.80;7.05;;;;;;;14.52;100.00;100602.23;256021;1092;114748;-72
2021/06/08 02:19:36;;;;;;;9.23;7.68;;;;;;;14.67;100.00;100597.88;256002;1093;114953;-71
2021/06/08 02:24:38;;;;;;;7.48;6.70;;;;;;;14.56;100.00;100608.30;255893;1093;114777;-72
2021/06/08 02:29:44;;;;;;;17.75;9.98;;;;;;;14.17;100.00;100608.48;256357;1093;114860;-71
2021/06/08 02:34:48;;;;;;;8.88;8.08;;;;;;;14.31;100.00;100615.83;256008;1093;115353;-72
2021/06/08 02:39:50;;;;;;;10.03;8.27;;;;;;;14.36;100.00;100612.91;255861;1093;114523;-71
2021/06/08 02:44:54;;;;;;;8.50;7.40;;;;;;;14.38;100.00;100613.67;255984;1093;115345;-71
2021/06/08 02:49:58;;;;;;;8.18;7.38;;;;;;;14.36;100.00;100615.59;255962;1093;115068;-73
2021/06/08 02:55:01;;;;;;;;;;;;;;;14.31;100.00;100617.63;255947;1091;115187;-71
2021/06/08 03:00:08;;;;;;;9.40;7.05;;;;;;;14.28;100.00;100625.84;256261;1093;103099;-72
2021/06/08 03:05:24;;;;;;;9.05;7.50;;;;;;;14.08;100.00;100625.06;256123;1093;114791;-71
2021/06/08 03:10:30;;;;;;;9.18;8.23;;;;;;;14.00;100.00;100637.98;256062;1093;115187;-71
2021/06/08 03:15:44;;;;;;;9.03;8.13;;;;;;;14.19;100.00;100632.56;256754;1093;115086;-70
2021/06/08 03:20:56;;;;;;;;;;;;;;;14.24;100.00;100635.86;255926;1092;115555;-72
2021/06/08 03:26:01;;;;;;;9.65;8.73;;;;;;;14.27;100.00;100648.23;256021;1093;103100;-71
2021/06/08 03:31:04;;;;;;;10.55;9.65;;;;;;;14.35;100.00;100646.03;255942;1093;114811;-69
2021/06/08 03:36:08;;;;;;;10.23;9.28;;;;;;;14.37;100.00;100651.31;255884;1093;114876;-72
2021/06/08 03:41:11;;;;;;;11.10;9.75;;;;;;;14.37;100.00;100652.20;256401;1093;115116;-74
2021/06/08 03:46:14;;;;;;;10.78;9.78;;;;;;;14.53;100.00;100651.37;255829;1096;114815;-72
2021/06/08 03:51:16;;;;;;;10.58;8.98;;;;;;;14.69;100.00;100652.34;256050;1093;115001;-71
2021/06/08 03:56:19;;;;;;;11.48;10.03;;;;;;;14.57;100.00;100652.96;255729;1093;115216;-71
2021/06/08 04:01:23;;;;;;;10.00;8.98;;;;;;;14.69;100.00;100652.34;255756;1093;115070;-72
2021/06/08 04:06:25;;;;;;;12.43;9.48;;;;;;;14.72;100.00;100653.98;255887;1096;114990;-72
2021/06/08 04:11:27;;;;;;;12.43;10.37;;;;;;;14.73;100.00;100651.21;255658;1093;116172;-71
2021/06/08 04:16:30;;;;;;;12.38;10.23;;;;;;;14.75;100.00;100651.16;258078;1091;116013;-69
2021/06/08 04:21:32;;;;;;;11.80;10.60;;;;;;;14.88;100.00;100643.29;255030;1095;115625;-72
2021/06/08 04:26:37;;;;;;;11.35;9.88;;;;;;;14.89;100.00;100648.59;255130;1096;115460;-72
2021/06/08 04:31:39;;;;;;;11.70;10.50;;;;;;;15.00;100.00;100650.70;256401;1096;114754;-75
2021/06/08 04:36:42;;;;;;;11.33;9.67;;;;;;;15.13;100.00;100657.13;256711;1096;114908;-73
2021/06/08 04:41:46;;;;;;;14.20;10.80;;;;;;;15.18;100.00;100655.99;255584;1096;115321;-73
2021/06/08 04:46:48;;;;;;;11.08;9.98;;;;;;;15.34;100.00;100653.31;255472;1096;115349;-74
2021/06/08 04:51:50;;;;;;;16.40;14.70;;;;;;;15.50;100.00;100650.66;255415;1095;115008;-70
2021/06/08 04:56:53;;;;;;;13.93;11.60;;;;;;;15.73;100.00;100647.50;255572;1095;115138;-71
2021/06/08 05:01:56;;;;;;;12.70;10.23;;;;;;;15.97;100.00;100652.45;255464;1095;115638;-71
2021/06/08 05:07:03;;;;;;;12.90;9.83;;;;;;;16.05;100.00;100660.05;254761;1096;115034;-73
2021/06/08 05:12:09;;;;;;;13.20;10.73;;;;;;;16.11;100.00;100654.31;255600;1095;114831;-71
2021/06/08 05:17:14;;;;;;;12.13;11.03;;;;;;;16.29;100.00;100656.88;255774;1096;115153;-71
2021/06/08 05:22:21;;;;;;;13.63;10.88;;;;;;;16.45;100.00;100657.70;254936;1096;114943;-71
2021/06/08 05:27:24;;;;;;;14.07;11.33;;;;;;;16.59;100.00;100658.69;255878;1096;115243;-71
2021/06/08 05:32:28;;;;;;;10.35;9.33;;;;;;;16.77;100.00;100656.69;254945;1095;115468;-72
2021/06/08 05:37:38;;;;;;;9.30;8.50;;;;;;;16.93;100.00;100656.63;255637;1096;115260;-71
2021/06/08 05:42:41;;;;;;;8.55;7.85;;;;;;;17.13;100.00;100649.96;255824;1096;114812;-69
2021/06/08 05:47:43;;;;;;;9.83;8.80;;;;;;;17.27;100.00;100647.25;255798;1096;114901;-72
2021/06/08 05:52:46;;;;;;;10.03;8.58;;;;;;;17.34;100.00;100645.89;256253;1096;115102;-70
2021/06/08 05:57:48;;;;;;;13.83;12.43;;;;;;;17.43;100.00;100654.35;255977;1096;114765;-71
2021/06/08 06:02:52;;;;;;;13.70;9.53;;;;;;;17.49;100.00;100657.53;254890;1096;115089;-72
2021/06/08 06:07:54;;;;;;;12.48;9.40;;;;;;;17.61;100.00;100653.17;255750;1096;114876;-73
2021/06/08 06:12:58;;;;;;;12.85;10.93;;;;;;;17.80;100.00;100635.77;256168;1096;114813;-72
2021/06/08 06:18:00;;;;;;;10.23;7.50;;;;;;;17.68;100.00;100641.02;255235;1096;115021;-70
2021/06/08 06:23:03;;;;;;;10.68;7.68;;;;;;;18.02;100.00;100634.37;255309;1096;115117;-71
2021/06/08 06:28:05;;;;;;;11.03;6.95;;;;;;;18.25;100.00;100641.77;255116;1095;115074;-72
2021/06/08 06:33:08;;;;;;;12.43;7.88;;;;;;;18.38;100.00;100640.92;254992;1095;115342;-71
2021/06/08 06:38:12;;;;;;;8.63;7.80;;;;;;;18.62;100.00;100641.89;254848;1095;115299;-72
2021/06/08 06:43:35;;;;;;;25.55;11.65;;;;;;;18.76;100.00;100640.06;254984;1095;114754;-71
2021/06/08 06:48:37;;;;;;;15.63;8.95;;;;;;;18.83;100.00;100643.20;254973;1096;115015;-74
2021/06/08 06:53:40;;;;;;;13.58;8.43;;;;;;;18.93;100.00;100642.47;254973;1097;114825;-69
2021/06/08 06:58:43;;;;;;;10.53;7.35;;;;;;;19.05;100.00;100637.16;255826;1095;115265;-71
2021/06/08 07:03:46;;;;;;;11.63;6.63;;;;;;;19.18;100.00;100639.84;255673;1096;115211;-71
2021/06/08 07:08:52;;;;;;;10.75;8.55;;;;;;;19.21;99.53;100640.48;255712;1096;114953;-71
2021/06/08 07:13:57;;;;;;;8.23;6.70;;;;;;;19.45;98.78;100638.80;256046;1094;114716;-72
2021/06/08 07:19:00;;;;;;;8.03;5.35;;;;;;;19.57;96.67;100644.17;255871;1096;114736;-71
2021/06/08 07:24:05;;;;;;;9.20;6.05;;;;;;;19.66;98.26;100639.91;255969;1096;114632;-71
2021/06/08 07:29:10;;;;;;;9.18;5.60;;;;;;;19.84;95.88;100644.97;256102;1095;114544;-72
2021/06/08 07:34:22;;;;;;;12.08;7.00;;;;;;;19.99;94.43;100645.64;255766;1096;114643;-71
2021/06/08 07:39:40;;;;;;;11.83;7.88;;;;;;;20.04;94.26;100648.85;256437;1095;114790;-75
2021/06/08 07:44:50;;;;;;;10.80;5.93;;;;;;;20.27;89.71;100646.23;256302;1096;114916;-69
2021/06/08 07:49:55;;;;;;;8.68;7.80;;;;;;;20.16;90.74;100647.91;256279;1096;114935;-71
2021/06/08 07:54:57;;;;;;;;;;;;;;;20.33;90.65;100646.61;256135;1096;114469;-70
2021/06/08 08:00:00;;;;;;;6.15;5.53;;;;;;;20.30;91.01;100648.72;255387;1095;103109;-71
2021/06/08 08:05:08;;;;;;;7.23;6.53;;;;;;;20.18;89.01;100656.78;255408;1095;114518;-72
2021/06/08 08:10:11;;;;;;;6.67;6.17;;;;;;;20.41;87.18;100656.86;256097;1095;114628;-71
2021/06/08 08:15:14;;;;;;;7.30;6.40;;;;;;;20.77;85.98;100654.13;255793;1096;114715;-72
2021/06/08 08:20:39;;;;;;;6.58;5.88;;;;;;;20.82;83.45;100655.49;255555;1096;114543;-72
2021/06/08 08:25:42;;;;;;;5.23;4.78;;;;;;;20.71;84.68;100655.45;255591;1096;115085;-69
2021/06/08 08:30:45;;;;;;;5.68;5.00;;;;;;;20.96;84.61;100645.40;256669;1096;114458;-72
2021/06/08 08:35:48;;;;;;;5.90;4.88;;;;;;;21.21;81.27;100647.00;255912;1096;114918;-71
2021/06/08 08:40:50;;;;;;;5.78;5.38;;;;;;;21.06;83.49;100640.09;255606;1096;115040;-72
2021/06/08 08:45:53;;;;;;;6.65;5.43;;;;;;;21.08;82.59;100641.70;255708;1096;115597;-71
2021/06/08 08:50:55;;;;;;;5.30;4.53;;;;;;;21.31;81.98;100641.69;255913;1095;115140;-72
2021/06/08 08:55:57;;;;;;;4.97;4.57;;;;;;;21.47;83.11;100643.99;256167;1095;114676;-70
2021/06/08 09:01:02;;;;;;;5.50;5.00;;;;;;;21.59;80.10;100639.45;255606;1095;114440;-71
2021/06/08 09:06:04;;;;;;;7.28;5.05;;;;;;;21.94;80.67;100635.64;255781;1095;114859;-72
2021/06/08 09:11:08;;;;;;;5.80;5.15;;;;;;;22.28;74.59;100627.33;255367;1095;114578;-72
2021/06/08 09:16:11;;;;;;;6.68;4.55;;;;;;;22.26;76.81;100632.90;256513;1096;114461;-75
2021/06/08 09:21:27;;;;;;;5.15;4.53;;;;;;;22.35;75.84;100628.52;256525;1096;114416;-71
2021/06/08 09:26:48;;;;;;;4.98;4.58;;;;;;;22.57;74.25;100626.70;255978;1095;114695;-71
2021/06/08 09:32:15;;;;;;;5.35;4.13;;;;;;;22.36;73.22;100623.97;255629;1095;114650;-70
2021/06/08 09:37:42;;;;;;;5.30;4.90;;;;;;;22.04;76.14;100624.86;255709;1096;114459;-71
2021/06/08 09:42:48;;;;;;;8.13;7.33;;;;;;;21.83;77.50;100622.13;255546;1096;114578;-71
2021/06/08 09:48:01;;;;;;;11.20;7.05;;;;;;;22.53;71.81;100614.39;255788;1096;114895;-72
2021/06/08 09:53:28;;;;;;;5.70;4.57;;;;;;;23.02;70.13;100623.64;256768;1095;114831;-71
2021/06/08 09:58:32;;;;;;;5.75;4.38;;;;;;;23.24;70.59;100619.88;255686;1096;115126;-71
2021/06/08 10:03:58;;;;;;;5.00;4.35;;;;;;;23.59;68.18;100616.80;255987;1096;114604;-71
2021/06/08 10:09:11;;;;;;;4.30;4.00;;;;;;;23.00;68.57;100609.32;255584;1096;114874;-70
2021/06/08 10:14:18;;;;;;;7.53;4.07;;;;;;;22.83;68.43;100609.98;255661;1095;114452;-73
2021/06/08 10:19:25;;;;;;;7.60;3.88;;;;;;;23.04;69.27;100608.06;255558;1095;114566;-73
2021/06/08 10:24:28;;;;;;;6.13;4.28;;;;;;;23.12;71.26;100601.92;255491;1095;114833;-70
2021/06/08 10:29:31;;;;;;;6.70;4.17;;;;;;;23.78;68.01;100603.24;256088;1096;114472;-72
2021/06/08 10:34:33;;;;;;;4.98;4.13;;;;;;;24.21;60.09;100601.09;255685;1096;115002;-77
2021/06/08 10:39:36;;;;;;;7.08;5.00;;;;;;;24.55;62.71;100597.86;255647;1096;114903;-76
2021/06/08 10:44:40;;;;;;;7.48;5.58;;;;;;;23.81;64.66;100589.33;256439;1096;115015;-72
2021/06/08 10:49:43;;;;;;;5.03;4.20;;;;;;;23.55;60.59;100602.62;255540;1096;114724;-71
2021/06/08 10:54:49;;;;;;;10.98;5.18;;;;;;;23.57;60.39;100591.63;255772;1095;114496;-71
2021/06/08 10:59:53;;;;;;;7.23;4.63;;;;;;;23.60;62.32;100592.20;255379;1096;114770;-70
2021/06/08 11:04:56;;;;;;;5.25;4.58;;;;;;;23.17;63.85;100582.52;255697;1095;114492;-70
2021/06/08 11:09:59;;;;;;;3.58;3.28;;;;;;;22.93;66.42;100578.25;256009;1095;114482;-75
2021/06/08 11:15:20;;;;;;;4.33;3.80;;;;;;;22.95;64.41;100568.11;256441;1096;114349;-71
2021/06/08 11:20:23;;;;;;;5.95;4.28;;;;;;;23.94;58.95;100575.47;255416;1096;114863;-71
2021/06/08 11:25:42;;;;;;;4.85;4.38;;;;;;;24.63;56.41;100564.45;255562;1095;115238;-71
2021/06/08 11:30:59;;;;;;;7.33;6.65;;;;;;;25.12;55.89;100556.92;255528;1096;114628;-70
2021/06/08 11:36:23;;;;;;;4.20;3.80;;;;;;;24.34;56.73;100558.06;255513;1095;114689;-70
2021/06/08 11:41:25;;;;;;;;;;;;;;;24.54;58.93;100559.88;255483;1095;114329;-71
2021/06/08 11:46:51;;;;;;;6.73;4.28;;;;;;;23.88;61.59;100556.97;255528;1096;103020;-71
2021/06/08 11:51:59;;;;;;;5.63;4.95;;;;;;;24.33;57.79;100550.89;255523;1096;114697;-71
2021/06/08 11:57:03;;;;;;;4.38;3.73;;;;;;;25.00;56.72;100551.82;255531;1096;114478;-72
2021/06/08 12:02:06;;;;;;;4.70;4.30;;;;;;;25.71;53.63;100547.49;255725;1095;115014;-74
2021/06/08 12:07:10;;;;;;;5.13;4.70;;;;;;;25.85;52.69;100544.20;255586;1096;114757;-75
2021/06/08 12:12:17;;;;;;;7.63;4.40;;;;;;;25.05;57.60;100544.91;255523;1095;114670;-74
2021/06/08 12:17:20;;;;;;;5.45;4.45;;;;;;;24.53;57.41;100539.92;255513;1095;114598;-70
2021/06/08 12:22:29;;;;;;;4.18;3.88;;;;;;;24.21;59.65;100543.91;255849;1095;115071;-70
2021/06/08 12:27:32;;;;;;;3.90;3.57;;;;;;;24.08;56.09;100535.19;255634;1096;114829;-73
2021/06/08 12:32:37;;;;;;;3.90;3.53;;;;;;;24.03;56.57;100536.47;255645;1096;115099;-72
2021/06/08 12:37:40;;;;;;;5.50;5.00;;;;;;;24.07;55.11;100534.31;255777;1096;114500;-74
2021/06/08 12:42:42;;;;;;;5.38;4.70;;;;;;;24.89;52.96;100523.73;255557;1095;114513;-71
2021/06/08 12:47:45;;;;;;;5.08;4.55;;;;;;;25.13;54.73;100525.89;255551;1095;114725;-72
2021/06/08 12:52:59;;;;;;;4.30;3.88;;;;;;;25.26;52.36;100525.52;255860;1095;115447;-72
2021/06/08 12:58:04;;;;;;;4.35;3.95;;;;;;;25.36;50.92;100513.70;256293;1096;114740;-77
2021/06/08 13:03:06;;;;;;;6.20;4.38;;;;;;;25.03;51.79;100519.66;257784;1096;114461;-75
2021/06/08 13:08:09;;;;;;;4.10;3.70;;;;;;;24.74;52.16;100517.09;256862;1096;114548;-76
2021/06/08 13:13:16;;;;;;;5.78;3.35;;;;;;;24.71;50.48;100518.23;255650;1096;114538;-70
2021/06/08 13:18:23;;;;;;;5.50;3.53;;;;;;;24.80;50.36;100520.05;255434;1096;114675;-72
2021/06/08 13:23:31;;;;;;;4.50;4.10;;;;;;;24.38;56.55;100508.75;255550;1096;114686;-76
2021/06/08 13:28:44;;;;;;;18.08;4.83;;;;;;;23.69;81.95;100519.73;255647;1096;114439;-74
2021/06/08 13:33:49;;;;;;;6.60;3.88;;;;;;;22.55;89.52;100509.19;255775;1095;114869;-75
2021/06/08 13:38:52;;;;;;;3.28;3.08;;;;;;;22.56;91.42;100516.31;255833;1095;115127;-75
2021/06/08 13:43:54;;;;;;;5.85;3.28;;;;;;;22.64;91.46;100505.63;257275;1095;114480;-75
2021/06/08 13:48:59;;;;;;;5.43;3.85;;;;;;;22.86;87.25;100504.58;256140;1096;114839;-72
2021/06/08 13:54:19;;;;;;;4.18;3.50;;;;;;;23.15;97.12;100500.19;255730;1095;114547;-73
2021/06/08 14:04:46;;;;;;;4.48;4.18;;;;;;;23.54;93.55;100505.70;255835;1096;114635;-71
2021/06/08 14:09:49;;;;;;;4.63;4.18;;;;;;;23.51;77.54;100495.95;255668;1096;115029;-71
2021/06/08 14:15:06;;;;;;;4.18;3.78;;;;;;;23.70;72.29;100492.36;255425;1096;114639;-71
2021/06/08 14:20:09;;;;;;;4.85;3.60;;;;;;;24.26;69.72;100489.00;255729;1096;114556;-74
2021/06/08 14:25:12;;;;;;;3.88;3.40;;;;;;;24.79;63.13;100479.33;255501;1095;114454;-76
2021/06/08 14:30:15;;;;;;;3.75;3.45;;;;;;;25.12;62.43;100476.96;255921;1095;114643;-75
2021/06/08 14:35:18;;;;;;;5.05;4.03;;;;;;;25.02;61.24;100477.03;255652;1096;114775;-76
2021/06/08 14:40:20;;;;;;;4.13;3.75;;;;;;;24.63;60.97;100475.36;255723;1095;114474;-71
2021/06/08 14:45:23;;;;;;;4.80;3.60;;;;;;;25.07;55.85;100465.66;256028;1096;114768;-71
2021/06/08 14:50:25;;;;;;;5.48;3.40;;;;;;;25.16;56.98;100470.20;255620;1096;114658;-72
2021/06/08 14:55:27;;;;;;;5.27;2.70;;;;;;;25.11;54.78;100472.52;255496;1095;114510;-70
2021/06/08 15:00:31;;;;;;;1.95;1.83;;;;;;;24.85;49.83;100475.99;256012;1096;114478;-72
2021/06/08 15:05:33;;;;;;;;;;;;;;;24.73;49.65;100469.05;255303;1096;114398;-71
2021/06/08 15:10:37;;;;;;;3.60;2.33;;;;;;;24.94;49.07;100477.81;255492;1095;103093;-70
2021/06/08 15:15:41;;;;;;;2.23;2.05;;;;;;;24.79;46.51;100462.98;256149;1096;115186;-68
2021/06/08 15:27:58;;;;;;;3.13;2.70;;;;;;;23.80;50.06;100477.89;258418;1092;103207;-71
2021/06/08 15:33:02;;;;;;;2.73;2.10;;;;;;;23.59;52.11;100478.92;257665;1096;114401;-73
2021/06/08 15:38:09;;;;;;;5.60;2.30;;;;;;;23.48;54.71;100477.20;260114;1096;114674;-76
2021/06/08 15:43:11;;;;;;;2.65;2.45;;;;;;;23.53;52.92;100471.34;258360;1096;114397;-75
2021/06/08 15:48:17;;;;;;;2.83;2.50;;;;;;;23.59;51.44;100468.04;258502;1095;114265;-73
2021/06/08 15:53:21;;;;;;;4.18;3.43;;;;;;;23.63;49.13;100458.57;256876;1095;114577;-70
2021/06/08 15:58:23;;;;;;;;;;;;;;;23.62;49.00;100453.28;257197;1096;114546;-70
2021/06/08 16:03:25;;;;;;;3.83;3.30;;;;;;;23.61;50.88;100465.16;257749;1096;103100;-73
2021/06/08 16:08:31;;;;;;;5.10;3.15;;;;;;;23.61;52.25;100463.29;259700;1095;114158;-75
2021/06/08 16:13:36;;;;;;;3.38;3.08;;;;;;;23.60;53.79;100466.16;257317;1096;115028;-71
2021/06/08 16:18:39;;;;;;;3.55;2.40;;;;;;;23.65;53.49;100464.73;259785;1096;114310;-73
2021/06/08 16:23:42;;;;;;;5.78;3.73;;;;;;;23.83;54.16;100466.70;256183;1096;114319;-71
2021/06/08 16:28:44;;;;;;;3.95;3.38;;;;;;;23.99;56.15;100461.55;257777;1096;114502;-75
2021/06/08 16:33:51;;;;;;;5.13;3.70;;;;;;;23.90;57.22;100476.00;257284;1095;114637;-74
2021/06/08 16:38:53;;;;;;;5.83;3.40;;;;;;;23.77;59.57;100464.56;257092;1094;114441;-73
2021/06/08 16:43:56;;;;;;;4.20;3.90;;;;;;;23.63;58.71;100472.17;257825;1096;114653;-72
2021/06/08 16:48:58;;;;;;;6.85;3.88;;;;;;;23.55;57.91;100477.48;256784;1096;114641;-75
2021/06/08 16:54:01;;;;;;;5.95;5.40;;;;;;;23.48;60.71;100484.48;256888;1096;114205;-73
2021/06/08 16:59:04;;;;;;;10.03;5.17;;;;;;;23.15;70.17;100478.44;257566;1095;114489;-72
2021/06/08 17:04:06;;;;;;;5.03;4.53;;;;;;;23.10;73.56;100486.17;256788;1096;114303;-73
2021/06/08 17:09:08;;;;;;;6.88;5.08;;;;;;;23.00;76.12;100487.00;256008;1095;114116;-73
2021/06/08 17:14:11;;;;;;;4.60;4.23;;;;;;;22.88;77.51;100499.00;256590;1096;114739;-72
2021/06/08 17:19:13;;;;;;;5.15;4.65;;;;;;;22.78;78.24;100496.25;256690;1095;114172;-71
2021/06/08 17:24:20;;;;;;;5.67;4.60;;;;;;;22.62;78.51;100494.06;257217;1095;114402;-71
2021/06/08 17:29:23;;;;;;;6.80;5.60;;;;;;;22.58;78.87;100489.88;257666;1095;114417;-71
2021/06/08 17:34:27;;;;;;;7.20;4.50;;;;;;;22.59;78.94;100505.19;256952;1096;114378;-71
2021/06/08 17:39:29;;;;;;;6.30;4.68;;;;;;;22.58;78.68;100498.91;256939;1096;114636;-70
2021/06/08 17:44:31;;;;;;;8.00;7.20;;;;;;;22.54;79.06;100502.03;257896;1093;114180;-72
2021/06/08 17:49:33;;;;;;;5.13;4.63;;;;;;;22.48;79.46;100497.15;258659;1095;114313;-74
2021/06/08 17:54:36;;;;;;;5.68;5.18;;;;;;;22.42;80.97;100510.25;257573;1096;114559;-65
2021/06/08 17:59:38;;;;;;;5.00;4.50;;;;;;;22.43;80.55;100511.98;258275;1095;114187;-74
2021/06/08 18:04:40;;;;;;;7.33;5.17;;;;;;;22.34;82.46;100523.64;257645;1095;114300;-72
2021/06/08 18:09:44;;;;;;;6.63;4.90;;;;;;;22.28;83.26;100516.00;257569;1095;114766;-72
2021/06/08 18:14:47;;;;;;;6.20;4.73;;;;;;;22.22;83.50;100519.27;256600;1096;114153;-72
2021/06/08 18:19:59;;;;;;;5.68;4.50;;;;;;;22.17;83.54;100522.38;256771;1095;114195;-72
2021/06/08 18:25:04;;;;;;;6.23;5.30;;;;;;;22.13;83.87;100535.35;257362;1096;114755;-63
2021/06/08 18:30:09;;;;;;;6.38;5.88;;;;;;;22.10;83.79;100543.78;257067;1096;114535;-72
2021/06/08 18:35:15;;;;;;;8.98;5.50;;;;;;;22.13;83.36;100540.78;257569;1095;114582;-74
2021/06/08 18:40:19;;;;;;;7.95;5.68;;;;;;;22.05;80.09;100535.19;256876;1096;114472;-73
2021/06/08 18:45:21;;;;;;;7.23;5.83;;;;;;;22.07;75.52;100538.60;257001;1095;114232;-72
2021/06/08 18:50:24;;;;;;;5.68;4.83;;;;;;;22.06;72.98;100545.02;257136;1095;114961;-73
2021/06/08 18:55:26;;;;;;;6.68;4.48;;;;;;;22.01;72.27;100544.56;256974;1094;114587;-73
2021/06/08 19:00:29;;;;;;;5.13;3.60;;;;;;;21.94;72.00;100543.37;257879;1095;114858;-77
2021/06/08 19:05:31;;;;;;;5.35;4.58;;;;;;;21.89;71.80;100543.76;259251;1094;114571;-65
2021/06/08 19:10:35;;;;;;;4.43;4.03;;;;;;;21.85;72.62;100544.17;258228;1096;114774;-71
2021/06/08 19:15:38;;;;;;;5.28;4.30;;;;;;;21.80;72.74;100542.70;257863;1096;114551;-73
2021/06/08 19:20:44;;;;;;;5.10;4.18;;;;;;;21.83;72.31;100551.58;257459;1096;114757;-74
2021/06/08 19:25:46;;;;;;;4.85;4.35;;;;;;;21.79;73.44;100551.83;258335;1095;114136;-72
2021/06/08 19:30:48;;;;;;;5.15;4.68;;;;;;;21.76;74.42;100557.53;258688;1096;114656;-70
2021/06/08 19:35:51;;;;;;;5.77;4.97;;;;;;;21.70;74.29;100571.63;257464;1095;114743;-72
2021/06/08 19:40:53;;;;;;;4.50;4.10;;;;;;;21.63;74.99;100571.27;256669;1095;114139;-70
2021/06/08 19:45:58;;;;;;;6.80;4.30;;;;;;;21.64;74.55;100574.82;257352;1096;116148;-71
2021/06/08 19:51:01;;;;;;;4.30;4.00;;;;;;;21.61;74.99;100573.23;257949;1096;114882;-71
2021/06/08 19:56:04;;;;;;;4.53;3.95;;;;;;;21.52;75.35;100578.53;257712;1096;114834;-71
2021/06/08 20:01:08;;;;;;;5.25;4.10;;;;;;;21.42;76.43;100576.61;257801;1096;114329;-72
2021/06/08 20:06:12;;;;;;;4.93;3.60;;;;;;;21.38;75.53;100585.13;258323;1096;114933;-73
2021/06/08 20:11:14;;;;;;;4.35;3.80;;;;;;;21.29;76.76;100582.18;257337;1095;113332;-71
2021/06/08 20:16:19;;;;;;;5.38;4.55;;;;;;;21.31;75.96;100577.50;257215;1096;114853;-72
2021/06/08 20:21:22;;;;;;;4.90;4.50;;;;;;;21.28;76.12;100574.18;257464;1096;114085;-70
2021/06/08 20:26:26;;;;;;;5.90;3.73;;;;;;;21.26;75.23;100578.86;257329;1095;114726;-73
2021/06/08 20:31:28;;;;;;;4.80;4.27;;;;;;;21.18;75.16;100585.77;256864;1094;114689;-73
2021/06/08 20:36:31;;;;;;;6.18;3.65;;;;;;;21.21;73.70;100600.91;256504;1095;114639;-71
2021/06/08 20:41:34;;;;;;;4.58;4.08;;;;;;;21.16;72.53;100595.87;256616;1095;114174;-70
2021/06/08 20:46:38;;;;;;;6.70;5.17;;;;;;;21.12;75.16;100596.23;257252;1096;114619;-75
2021/06/08 20:51:41;;;;;;;6.20;4.78;;;;;;;21.12;73.67;100604.37;256068;1096;114480;-70
2021/06/08 20:56:44;;;;;;;5.03;4.27;;;;;;;21.03;73.16;100605.13;256430;1096;115258;-72
2021/06/08 21:01:47;;;;;;;4.50;4.13;;;;;;;20.99;73.35;100601.81;256286;1095;114720;-72
2021/06/08 21:06:49;;;;;;;6.65;4.20;;;;;;;20.91;74.12;100615.11;257590;1096;114165;-70
2021/06/08 21:11:51;;;;;;;4.33;3.93;;;;;;;20.78;73.25;100610.68;256897;1096;114602;-72
2021/06/08 21:16:57;;;;;;;4.58;4.15;;;;;;;20.57;75.00;100612.34;256252;1095;114343;-72
2021/06/08 21:22:00;;;;;;;4.98;4.50;;;;;;;20.41;75.31;100613.55;256271;1096;114598;-70
2021/06/08 21:27:03;;;;;;;5.03;3.95;;;;;;;20.34;76.11;100623.13;257074;1096;114372;-69
2021/06/08 21:32:09;;;;;;;5.03;4.00;;;;;;;20.20;79.32;100616.94;257247;1096;114388;-74
2021/06/08 21:37:12;;;;;;;4.65;4.20;;;;;;;20.06;82.60;100620.69;257142;1095;114624;-72
2021/06/08 21:42:14;;;;;;;7.13;4.75;;;;;;;19.90;83.97;100621.01;256882;1096;114256;-70
2021/06/08 21:47:17;;;;;;;7.53;4.85;;;;;;;19.76;85.40;100623.86;257130;1096;115201;-70
2021/06/08 21:52:19;;;;;;;5.30;4.33;;;;;;;19.61;88.16;100625.00;257188;1096;114330;-71
2021/06/08 21:57:22;;;;;;;5.60;3.93;;;;;;;19.52;89.68;100622.00;259602;1097;113593;-70
2021/06/08 22:02:24;;;;;;;4.48;4.08;;;;;;;19.40;93.93;100622.91;257274;1095;114681;-70
2021/06/08 22:07:28;;;;;;;5.58;4.65;;;;;;;19.23;96.77;100618.75;257855;1096;114800;-70
2021/06/08 22:12:30;;;;;;;6.65;4.00;;;;;;;19.05;99.86;100623.64;257059;1096;114436;-71
2021/06/08 22:17:38;;;;;;;5.73;4.78;;;;;;;18.97;100.00;100631.43;256997;1096;114949;-71
2021/06/08 22:22:46;;;;;;;8.07;4.50;;;;;;;18.97;100.00;100631.43;256836;1096;114921;-71
2021/06/08 22:27:49;;;;;;;7.23;4.48;;;;;;;18.81;100.00;100632.52;258215;1095;114841;-71
2021/06/08 22:32:52;;;;;;;6.38;4.18;;;;;;;18.68;100.00;100628.96;258705;1095;114698;-70
2021/06/08 22:37:54;;;;;;;5.03;4.18;;;;;;;18.62;100.00;100631.09;257640;1096;114768;-71
2021/06/08 22:42:58;;;;;;;5.73;5.18;;;;;;;18.62;100.00;100625.70;258366;1095;114413;-71
2021/06/08 22:48:00;;;;;;;8.03;5.20;;;;;;;18.59;100.00;100628.63;258441;1094;114537;-70
2021/06/08 22:53:11;;;;;;;5.40;4.90;;;;;;;18.59;100.00;100634.03;260488;1093;114474;-72
2021/06/08 22:58:19;;;;;;;5.58;5.05;;;;;;;18.72;100.00;100631.31;258200;1095;114780;-62
2021/06/08 23:03:21;;;;;;;8.38;5.43;;;;;;;18.89;100.00;100629.26;258280;1096;114337;-70
2021/06/08 23:08:24;;;;;;;6.30;5.60;;;;;;;18.82;100.00;100634.22;259024;1095;114509;-70
2021/06/08 23:13:26;;;;;;;6.98;6.38;;;;;;;18.74;100.00;100631.23;257881;1096;114496;-69